sensor_id;sensor_type;location;lat;lon;timestamp;P1;durP1;ratioP1;P2;durP2;ratioP2
29688;SDS011;16600;47.444;8.334;2023-10-09T00:01:43;23.80;;;10.27;;
29688;SDS011;16600;47.444;8.334;2023-10-09T00:04:13;24.35;;;11.85;;
29688;SDS011;16600;47.444;8.334;2023-10-09T00:06:42;21.33;;;11.68;;
29688;SDS011;16600;47.444;8.334;2023-10-09T00:09:08;24.08;;;11.82;;
29688;SDS011;16600;47.444;8.334;2023-10-09T00:11:59;17.77;;;9.43;;
29688;SDS011;16600;47.444;8.334;2023-10-09T00:14:27;17.52;;;10.73;;
29688;SDS011;16600;47.444;8.334;2023-10-09T00:17:04;23.95;;;12.73;;
29688;SDS011;16600;47.444;8.334;2023-10-09T00:19:39;25.33;;;11.40;;
29688;SDS011;16600;47.444;8.334;2023-10-09T00:22:08;21.60;;;12.25;;
29688;SDS011;16600;47.444;8.334;2023-10-09T00:24:42;21.77;;;10.85;;
29688;SDS011;16600;47.444;8.334;2023-10-09T00:27:15;21.33;;;10.40;;
29688;SDS011;16600;47.444;8.334;2023-10-09T00:29:46;20.20;;;9.63;;
29688;SDS011;16600;47.444;8.334;2023-10-09T00:32:16;17.20;;;9.88;;
29688;SDS011;16600;47.444;8.334;2023-10-09T00:34:52;25.02;;;12.13;;
29688;SDS011;16600;47.444;8.334;2023-10-09T00:37:23;21.13;;;10.18;;
29688;SDS011;16600;47.444;8.334;2023-10-09T00:39:52;15.27;;;10.00;;
29688;SDS011;16600;47.444;8.334;2023-10-09T00:42:24;27.60;;;10.27;;
29688;SDS011;16600;47.444;8.334;2023-10-09T00:45:03;23.08;;;11.02;;
29688;SDS011;16600;47.444;8.334;2023-10-09T00:47:30;16.17;;;9.70;;
29688;SDS011;16600;47.444;8.334;2023-10-09T00:50:07;22.92;;;9.32;;
29688;SDS011;16600;47.444;8.334;2023-10-09T00:52:39;17.13;;;11.38;;
29688;SDS011;16600;47.444;8.334;2023-10-09T00:55:25;24.52;;;9.73;;
29688;SDS011;16600;47.444;8.334;2023-10-09T00:58:05;17.15;;;9.30;;
29688;SDS011;16600;47.444;8.334;2023-10-09T01:00:39;14.73;;;9.02;;
29688;SDS011;16600;47.444;8.334;2023-10-09T01:03:20;19.05;;;10.18;;
29688;SDS011;16600;47.444;8.334;2023-10-09T01:05:56;19.00;;;9.45;;
29688;SDS011;16600;47.444;8.334;2023-10-09T01:08:28;17.73;;;10.00;;
29688;SDS011;16600;47.444;8.334;2023-10-09T01:11:00;23.13;;;9.50;;
29688;SDS011;16600;47.444;8.334;2023-10-09T01:13:36;16.80;;;8.95;;
29688;SDS011;16600;47.444;8.334;2023-10-09T01:16:12;16.25;;;8.68;;
29688;SDS011;16600;47.444;8.334;2023-10-09T01:18:45;13.60;;;8.30;;
29688;SDS011;16600;47.444;8.334;2023-10-09T01:21:15;18.15;;;9.30;;
29688;SDS011;16600;47.444;8.334;2023-10-09T01:23:42;22.98;;;8.07;;
29688;SDS011;16600;47.444;8.334;2023-10-09T01:26:26;18.92;;;9.18;;
29688;SDS011;16600;47.444;8.334;2023-10-09T01:28:53;12.65;;;8.35;;
29688;SDS011;16600;47.444;8.334;2023-10-09T01:31:24;17.33;;;8.13;;
29688;SDS011;16600;47.444;8.334;2023-10-09T01:33:52;14.65;;;7.55;;
29688;SDS011;16600;47.444;8.334;2023-10-09T01:36:25;18.38;;;8.82;;
29688;SDS011;16600;47.444;8.334;2023-10-09T01:39:00;18.15;;;9.80;;
29688;SDS011;16600;47.444;8.334;2023-10-09T01:41:47;28.25;;;10.85;;
29688;SDS011;16600;47.444;8.334;2023-10-09T01:44:18;19.83;;;9.77;;
29688;SDS011;16600;47.444;8.334;2023-10-09T01:46:44;14.48;;;9.02;;
29688;SDS011;16600;47.444;8.334;2023-10-09T01:49:17;24.38;;;9.98;;
29688;SDS011;16600;47.444;8.334;2023-10-09T01:51:48;21.75;;;11.20;;
29688;SDS011;16600;47.444;8.334;2023-10-09T01:54:16;15.63;;;9.23;;
29688;SDS011;16600;47.444;8.334;2023-10-09T01:56:59;19.92;;;9.50;;
29688;SDS011;16600;47.444;8.334;2023-10-09T01:59:33;17.27;;;9.60;;
29688;SDS011;16600;47.444;8.334;2023-10-09T02:02:04;16.83;;;10.13;;
29688;SDS011;16600;47.444;8.334;2023-10-09T02:04:40;18.65;;;10.15;;
29688;SDS011;16600;47.444;8.334;2023-10-09T02:07:06;25.52;;;11.45;;
29688;SDS011;16600;47.444;8.334;2023-10-09T02:09:35;23.58;;;10.50;;
29688;SDS011;16600;47.444;8.334;2023-10-09T02:12:10;29.33;;;9.57;;
29688;SDS011;16600;47.444;8.334;2023-10-09T02:14:36;17.90;;;9.13;;
29688;SDS011;16600;47.444;8.334;2023-10-09T02:17:09;21.52;;;8.80;;
29688;SDS011;16600;47.444;8.334;2023-10-09T02:19:37;17.85;;;9.32;;
29688;SDS011;16600;47.444;8.334;2023-10-09T02:22:06;21.80;;;8.48;;
29688;SDS011;16600;47.444;8.334;2023-10-09T02:24:41;19.67;;;9.70;;
29688;SDS011;16600;47.444;8.334;2023-10-09T02:27:13;14.48;;;9.07;;
29688;SDS011;16600;47.444;8.334;2023-10-09T02:29:46;20.33;;;10.18;;
29688;SDS011;16600;47.444;8.334;2023-10-09T02:32:13;18.55;;;9.15;;
29688;SDS011;16600;47.444;8.334;2023-10-09T02:34:54;21.13;;;9.88;;
29688;SDS011;16600;47.444;8.334;2023-10-09T02:37:20;18.65;;;9.88;;
29688;SDS011;16600;47.444;8.334;2023-10-09T02:39:50;37.78;;;9.55;;
29688;SDS011;16600;47.444;8.334;2023-10-09T02:42:18;15.13;;;8.15;;
29688;SDS011;16600;47.444;8.334;2023-10-09T02:44:52;18.92;;;8.68;;
29688;SDS011;16600;47.444;8.334;2023-10-09T02:47:18;19.30;;;9.70;;
29688;SDS011;16600;47.444;8.334;2023-10-09T02:49:55;32.13;;;10.52;;
29688;SDS011;16600;47.444;8.334;2023-10-09T02:52:33;25.83;;;9.82;;
29688;SDS011;16600;47.444;8.334;2023-10-09T02:55:06;15.25;;;9.45;;
29688;SDS011;16600;47.444;8.334;2023-10-09T02:57:48;21.85;;;9.82;;
29688;SDS011;16600;47.444;8.334;2023-10-09T03:00:17;20.90;;;9.10;;
29688;SDS011;16600;47.444;8.334;2023-10-09T03:02:55;18.52;;;9.65;;
29688;SDS011;16600;47.444;8.334;2023-10-09T03:05:24;17.05;;;10.73;;
29688;SDS011;16600;47.444;8.334;2023-10-09T03:07:50;22.35;;;10.13;;
29688;SDS011;16600;47.444;8.334;2023-10-09T03:10:22;17.95;;;10.45;;
29688;SDS011;16600;47.444;8.334;2023-10-09T03:12:52;19.27;;;10.13;;
29688;SDS011;16600;47.444;8.334;2023-10-09T03:15:19;19.42;;;9.95;;
29688;SDS011;16600;47.444;8.334;2023-10-09T03:17:49;16.33;;;8.82;;
29688;SDS011;16600;47.444;8.334;2023-10-09T03:20:18;15.50;;;9.57;;
29688;SDS011;16600;47.444;8.334;2023-10-09T03:22:47;16.58;;;9.75;;
29688;SDS011;16600;47.444;8.334;2023-10-09T03:25:15;16.30;;;9.73;;
29688;SDS011;16600;47.444;8.334;2023-10-09T03:27:42;25.75;;;9.02;;
29688;SDS011;16600;47.444;8.334;2023-10-09T03:30:16;17.15;;;9.57;;
29688;SDS011;16600;47.444;8.334;2023-10-09T03:32:48;20.63;;;10.82;;
29688;SDS011;16600;47.444;8.334;2023-10-09T03:35:21;21.77;;;9.57;;
29688;SDS011;16600;47.444;8.334;2023-10-09T03:37:53;19.63;;;9.55;;
29688;SDS011;16600;47.444;8.334;2023-10-09T03:40:23;24.73;;;9.75;;
29688;SDS011;16600;47.444;8.334;2023-10-09T03:42:49;17.90;;;9.25;;
29688;SDS011;16600;47.444;8.334;2023-10-09T03:45:21;21.92;;;11.20;;
29688;SDS011;16600;47.444;8.334;2023-10-09T03:47:51;17.45;;;11.30;;
29688;SDS011;16600;47.444;8.334;2023-10-09T03:50:25;20.40;;;9.82;;
29688;SDS011;16600;47.444;8.334;2023-10-09T03:53:11;20.85;;;11.07;;
29688;SDS011;16600;47.444;8.334;2023-10-09T03:55:43;22.77;;;11.23;;
29688;SDS011;16600;47.444;8.334;2023-10-09T03:58:09;21.23;;;10.55;;
29688;SDS011;16600;47.444;8.334;2023-10-09T04:03:03;26.53;;;10.03;;
29688;SDS011;16600;47.444;8.334;2023-10-09T04:05:31;27.38;;;12.25;;
29688;SDS011;16600;47.444;8.334;2023-10-09T04:10:24;13.68;;;8.82;;
29688;SDS011;16600;47.444;8.334;2023-10-09T04:13:10;21.50;;;11.77;;
29688;SDS011;16600;47.444;8.334;2023-10-09T04:15:42;23.00;;;10.80;;
29688;SDS011;16600;47.444;8.334;2023-10-09T04:18:11;19.65;;;11.60;;
29688;SDS011;16600;47.444;8.334;2023-10-09T04:20:41;22.05;;;11.02;;
29688;SDS011;16600;47.444;8.334;2023-10-09T04:23:10;18.48;;;9.32;;
29688;SDS011;16600;47.444;8.334;2023-10-09T04:25:41;22.10;;;9.90;;
29688;SDS011;16600;47.444;8.334;2023-10-09T04:28:08;17.20;;;10.00;;
29688;SDS011;16600;47.444;8.334;2023-10-09T04:30:37;19.00;;;10.45;;
29688;SDS011;16600;47.444;8.334;2023-10-09T04:33:08;21.88;;;10.68;;
29688;SDS011;16600;47.444;8.334;2023-10-09T04:35:54;19.63;;;10.73;;
29688;SDS011;16600;47.444;8.334;2023-10-09T04:38:41;14.90;;;9.18;;
29688;SDS011;16600;47.444;8.334;2023-10-09T04:41:21;21.45;;;10.27;;
29688;SDS011;16600;47.444;8.334;2023-10-09T04:46:48;14.50;;;8.85;;
29688;SDS011;16600;47.444;8.334;2023-10-09T04:49:33;19.00;;;10.48;;
29688;SDS011;16600;47.444;8.334;2023-10-09T04:52:18;16.92;;;9.23;;
29688;SDS011;16600;47.444;8.334;2023-10-09T04:54:45;19.25;;;9.90;;
29688;SDS011;16600;47.444;8.334;2023-10-09T04:57:30;24.35;;;13.45;;
29688;SDS011;16600;47.444;8.334;2023-10-09T05:00:06;20.70;;;11.60;;
29688;SDS011;16600;47.444;8.334;2023-10-09T05:02:51;17.95;;;9.90;;
29688;SDS011;16600;47.444;8.334;2023-10-09T05:05:29;18.58;;;11.93;;
29688;SDS011;16600;47.444;8.334;2023-10-09T05:08:13;26.40;;;12.35;;
29688;SDS011;16600;47.444;8.334;2023-10-09T05:11:00;25.25;;;11.15;;
29688;SDS011;16600;47.444;8.334;2023-10-09T05:16:16;16.77;;;10.55;;
29688;SDS011;16600;47.444;8.334;2023-10-09T05:18:51;20.20;;;11.77;;
29688;SDS011;16600;47.444;8.334;2023-10-09T05:21:26;29.75;;;10.88;;
29688;SDS011;16600;47.444;8.334;2023-10-09T05:23:57;16.95;;;10.30;;
29688;SDS011;16600;47.444;8.334;2023-10-09T05:29:13;25.98;;;11.02;;
29688;SDS011;16600;47.444;8.334;2023-10-09T05:31:48;17.70;;;9.35;;
29688;SDS011;16600;47.444;8.334;2023-10-09T05:34:33;20.58;;;10.93;;
29688;SDS011;16600;47.444;8.334;2023-10-09T05:37:17;23.48;;;10.52;;
29688;SDS011;16600;47.444;8.334;2023-10-09T05:39:48;28.75;;;9.73;;
29688;SDS011;16600;47.444;8.334;2023-10-09T05:42:27;25.92;;;11.73;;
29688;SDS011;16600;47.444;8.334;2023-10-09T05:45:05;17.45;;;9.60;;
29688;SDS011;16600;47.444;8.334;2023-10-09T05:47:43;23.08;;;11.27;;
29688;SDS011;16600;47.444;8.334;2023-10-09T05:50:21;18.80;;;10.20;;
29688;SDS011;16600;47.444;8.334;2023-10-09T05:52:48;26.65;;;10.05;;
29688;SDS011;16600;47.444;8.334;2023-10-09T05:55:16;23.02;;;10.18;;
29688;SDS011;16600;47.444;8.334;2023-10-09T05:58:05;19.65;;;9.57;;
29688;SDS011;16600;47.444;8.334;2023-10-09T06:00:50;19.67;;;10.20;;
29688;SDS011;16600;47.444;8.334;2023-10-09T06:03:35;28.15;;;9.73;;
29688;SDS011;16600;47.444;8.334;2023-10-09T06:06:22;30.00;;;10.38;;
29688;SDS011;16600;47.444;8.334;2023-10-09T06:09:08;18.05;;;9.00;;
29688;SDS011;16600;47.444;8.334;2023-10-09T06:11:43;34.90;;;9.45;;
29688;SDS011;16600;47.444;8.334;2023-10-09T06:14:21;12.32;;;6.80;;
29688;SDS011;16600;47.444;8.334;2023-10-09T06:16:57;23.50;;;8.30;;
29688;SDS011;16600;47.444;8.334;2023-10-09T06:19:27;15.38;;;7.18;;
29688;SDS011;16600;47.444;8.334;2023-10-09T06:21:58;12.73;;;7.00;;
29688;SDS011;16600;47.444;8.334;2023-10-09T06:24:30;21.88;;;7.78;;
29688;SDS011;16600;47.444;8.334;2023-10-09T06:27:11;18.38;;;7.35;;
29688;SDS011;16600;47.444;8.334;2023-10-09T06:29:38;15.57;;;8.20;;
29688;SDS011;16600;47.444;8.334;2023-10-09T06:32:17;12.82;;;5.88;;
29688;SDS011;16600;47.444;8.334;2023-10-09T06:34:58;16.73;;;7.50;;
29688;SDS011;16600;47.444;8.334;2023-10-09T06:40:29;17.58;;;7.00;;
29688;SDS011;16600;47.444;8.334;2023-10-09T06:43:14;11.95;;;6.20;;
29688;SDS011;16600;47.444;8.334;2023-10-09T06:45:55;17.17;;;6.65;;
29688;SDS011;16600;47.444;8.334;2023-10-09T06:48:40;12.55;;;6.63;;
29688;SDS011;16600;47.444;8.334;2023-10-09T06:51:11;20.63;;;11.07;;
29688;SDS011;16600;47.444;8.334;2023-10-09T06:53:52;24.02;;;7.53;;
29688;SDS011;16600;47.444;8.334;2023-10-09T06:56:26;18.42;;;6.50;;
29688;SDS011;16600;47.444;8.334;2023-10-09T06:59:01;23.33;;;7.15;;
29688;SDS011;16600;47.444;8.334;2023-10-09T07:01:41;20.60;;;8.65;;
29688;SDS011;16600;47.444;8.334;2023-10-09T07:04:30;14.75;;;6.82;;
29688;SDS011;16600;47.444;8.334;2023-10-09T07:06:56;25.63;;;7.40;;
29688;SDS011;16600;47.444;8.334;2023-10-09T07:09:24;17.55;;;6.60;;
29688;SDS011;16600;47.444;8.334;2023-10-09T07:12:08;22.27;;;7.13;;
29688;SDS011;16600;47.444;8.334;2023-10-09T07:14:53;19.45;;;6.53;;
29688;SDS011;16600;47.444;8.334;2023-10-09T07:17:20;26.42;;;7.25;;
29688;SDS011;16600;47.444;8.334;2023-10-09T07:19:54;16.13;;;6.97;;
29688;SDS011;16600;47.444;8.334;2023-10-09T07:22:20;13.13;;;6.68;;
29688;SDS011;16600;47.444;8.334;2023-10-09T07:24:46;15.35;;;6.32;;
29688;SDS011;16600;47.444;8.334;2023-10-09T07:27:24;16.10;;;6.20;;
29688;SDS011;16600;47.444;8.334;2023-10-09T07:30:11;28.25;;;7.63;;
29688;SDS011;16600;47.444;8.334;2023-10-09T07:32:59;17.92;;;6.22;;
29688;SDS011;16600;47.444;8.334;2023-10-09T07:35:41;14.88;;;6.05;;
29688;SDS011;16600;47.444;8.334;2023-10-09T07:38:11;23.58;;;6.38;;
29688;SDS011;16600;47.444;8.334;2023-10-09T07:40:40;15.70;;;6.47;;
29688;SDS011;16600;47.444;8.334;2023-10-09T07:43:25;23.85;;;6.78;;
29688;SDS011;16600;47.444;8.334;2023-10-09T07:45:57;19.75;;;6.75;;
29688;SDS011;16600;47.444;8.334;2023-10-09T07:48:23;12.90;;;5.93;;
29688;SDS011;16600;47.444;8.334;2023-10-09T07:50:52;26.15;;;6.93;;
29688;SDS011;16600;47.444;8.334;2023-10-09T07:53:31;22.98;;;7.35;;
29688;SDS011;16600;47.444;8.334;2023-10-09T07:56:09;22.98;;;7.35;;
29688;SDS011;16600;47.444;8.334;2023-10-09T07:58:35;22.88;;;7.05;;
29688;SDS011;16600;47.444;8.334;2023-10-09T08:01:12;20.80;;;7.50;;
29688;SDS011;16600;47.444;8.334;2023-10-09T08:03:42;15.88;;;7.13;;
29688;SDS011;16600;47.444;8.334;2023-10-09T08:06:12;19.58;;;6.28;;
29688;SDS011;16600;47.444;8.334;2023-10-09T08:08:56;25.17;;;6.57;;
29688;SDS011;16600;47.444;8.334;2023-10-09T08:11:31;24.05;;;6.75;;
29688;SDS011;16600;47.444;8.334;2023-10-09T08:14:25;17.65;;;6.07;;
29688;SDS011;16600;47.444;8.334;2023-10-09T08:17:00;19.80;;;4.47;;
29688;SDS011;16600;47.444;8.334;2023-10-09T08:19:46;12.20;;;4.28;;
29688;SDS011;16600;47.444;8.334;2023-10-09T08:22:25;6.43;;;3.53;;
29688;SDS011;16600;47.444;8.334;2023-10-09T08:24:51;12.57;;;5.22;;
29688;SDS011;16600;47.444;8.334;2023-10-09T08:27:24;8.93;;;3.95;;
29688;SDS011;16600;47.444;8.334;2023-10-09T08:29:58;13.10;;;4.97;;
29688;SDS011;16600;47.444;8.334;2023-10-09T08:32:40;13.73;;;4.38;;
29688;SDS011;16600;47.444;8.334;2023-10-09T08:35:09;7.50;;;4.13;;
29688;SDS011;16600;47.444;8.334;2023-10-09T08:37:54;8.32;;;4.45;;
29688;SDS011;16600;47.444;8.334;2023-10-09T08:40:20;11.13;;;4.63;;
29688;SDS011;16600;47.444;8.334;2023-10-09T08:42:48;21.55;;;6.93;;
29688;SDS011;16600;47.444;8.334;2023-10-09T08:45:21;14.60;;;5.22;;
29688;SDS011;16600;47.444;8.334;2023-10-09T08:47:51;21.23;;;6.82;;
29688;SDS011;16600;47.444;8.334;2023-10-09T08:50:19;17.20;;;6.03;;
29688;SDS011;16600;47.444;8.334;2023-10-09T08:52:49;9.70;;;4.03;;
29688;SDS011;16600;47.444;8.334;2023-10-09T08:55:15;12.57;;;5.22;;
29688;SDS011;16600;47.444;8.334;2023-10-09T08:57:44;13.13;;;5.35;;
29688;SDS011;16600;47.444;8.334;2023-10-09T09:00:18;13.00;;;4.60;;
29688;SDS011;16600;47.444;8.334;2023-10-09T09:02:52;21.48;;;6.47;;
29688;SDS011;16600;47.444;8.334;2023-10-09T09:05:21;13.75;;;4.30;;
29688;SDS011;16600;47.444;8.334;2023-10-09T09:07:49;9.43;;;5.07;;
29688;SDS011;16600;47.444;8.334;2023-10-09T09:10:15;11.40;;;4.60;;
29688;SDS011;16600;47.444;8.334;2023-10-09T09:12:47;8.05;;;3.97;;
29688;SDS011;16600;47.444;8.334;2023-10-09T09:15:19;16.15;;;5.90;;
29688;SDS011;16600;47.444;8.334;2023-10-09T09:17:52;10.25;;;4.47;;
29688;SDS011;16600;47.444;8.334;2023-10-09T09:20:28;14.45;;;5.20;;
29688;SDS011;16600;47.444;8.334;2023-10-09T09:23:05;17.38;;;5.57;;
29688;SDS011;16600;47.444;8.334;2023-10-09T09:25:42;8.75;;;4.65;;
29688;SDS011;16600;47.444;8.334;2023-10-09T09:28:11;24.10;;;5.10;;
29688;SDS011;16600;47.444;8.334;2023-10-09T09:30:47;11.20;;;5.65;;
29688;SDS011;16600;47.444;8.334;2023-10-09T09:33:23;19.70;;;4.00;;
29688;SDS011;16600;47.444;8.334;2023-10-09T09:36:09;14.73;;;4.07;;
29688;SDS011;16600;47.444;8.334;2023-10-09T09:38:38;10.20;;;4.20;;
29688;SDS011;16600;47.444;8.334;2023-10-09T09:41:17;6.22;;;3.80;;
29688;SDS011;16600;47.444;8.334;2023-10-09T09:43:58;8.52;;;4.00;;
29688;SDS011;16600;47.444;8.334;2023-10-09T09:46:28;20.60;;;6.38;;
29688;SDS011;16600;47.444;8.334;2023-10-09T09:49:00;16.75;;;5.60;;
29688;SDS011;16600;47.444;8.334;2023-10-09T09:51:30;17.58;;;5.63;;
29688;SDS011;16600;47.444;8.334;2023-10-09T09:53:56;12.23;;;5.25;;
29688;SDS011;16600;47.444;8.334;2023-10-09T09:56:24;16.02;;;5.53;;
29688;SDS011;16600;47.444;8.334;2023-10-09T09:58:50;24.30;;;6.50;;
29688;SDS011;16600;47.444;8.334;2023-10-09T10:03:06;11.95;;;5.68;;
29688;SDS011;16600;47.444;8.334;2023-10-09T10:05:34;18.45;;;6.25;;
29688;SDS011;16600;47.444;8.334;2023-10-09T10:08:03;14.77;;;6.15;;
29688;SDS011;16600;47.444;8.334;2023-10-09T10:10:37;16.08;;;6.00;;
29688;SDS011;16600;47.444;8.334;2023-10-09T10:13:13;16.92;;;5.10;;
29688;SDS011;16600;47.444;8.334;2023-10-09T10:16:08;18.70;;;4.82;;
29688;SDS011;16600;47.444;8.334;2023-10-09T10:18:51;8.25;;;3.72;;
29688;SDS011;16600;47.444;8.334;2023-10-09T10:21:18;26.90;;;5.65;;
29688;SDS011;16600;47.444;8.334;2023-10-09T10:24:04;7.60;;;4.53;;
29688;SDS011;16600;47.444;8.334;2023-10-09T10:26:35;13.57;;;4.97;;
29688;SDS011;16600;47.444;8.334;2023-10-09T10:29:18;15.75;;;5.35;;
29688;SDS011;16600;47.444;8.334;2023-10-09T10:31:55;8.40;;;5.10;;
29688;SDS011;16600;47.444;8.334;2023-10-09T10:34:25;14.63;;;5.03;;
29688;SDS011;16600;47.444;8.334;2023-10-09T10:36:51;18.52;;;4.97;;
29688;SDS011;16600;47.444;8.334;2023-10-09T10:39:29;13.38;;;4.63;;
29688;SDS011;16600;47.444;8.334;2023-10-09T10:42:10;16.75;;;6.40;;
29688;SDS011;16600;47.444;8.334;2023-10-09T10:45:01;16.27;;;5.35;;
29688;SDS011;16600;47.444;8.334;2023-10-09T10:47:30;22.23;;;5.75;;
29688;SDS011;16600;47.444;8.334;2023-10-09T10:50:02;15.35;;;5.25;;
29688;SDS011;16600;47.444;8.334;2023-10-09T10:52:46;13.52;;;5.22;;
29688;SDS011;16600;47.444;8.334;2023-10-09T10:55:22;15.63;;;5.65;;
29688;SDS011;16600;47.444;8.334;2023-10-09T10:58:01;10.80;;;5.20;;
29688;SDS011;16600;47.444;8.334;2023-10-09T11:00:39;12.30;;;5.10;;
29688;SDS011;16600;47.444;8.334;2023-10-09T11:03:27;16.80;;;5.60;;
29688;SDS011;16600;47.444;8.334;2023-10-09T11:06:29;12.73;;;5.30;;
29688;SDS011;16600;47.444;8.334;2023-10-09T11:09:06;13.70;;;5.80;;
29688;SDS011;16600;47.444;8.334;2023-10-09T11:11:50;21.40;;;5.55;;
29688;SDS011;16600;47.444;8.334;2023-10-09T11:14:36;10.82;;;6.00;;
29688;SDS011;16600;47.444;8.334;2023-10-09T11:17:31;11.45;;;5.25;;
29688;SDS011;16600;47.444;8.334;2023-10-09T11:20:01;14.57;;;6.07;;
29688;SDS011;16600;47.444;8.334;2023-10-09T11:22:48;19.83;;;5.20;;
29688;SDS011;16600;47.444;8.334;2023-10-09T11:25:35;20.52;;;3.83;;
29688;SDS011;16600;47.444;8.334;2023-10-09T11:28:16;10.50;;;3.58;;
29688;SDS011;16600;47.444;8.334;2023-10-09T11:30:53;11.68;;;3.50;;
29688;SDS011;16600;47.444;8.334;2023-10-09T11:33:21;8.38;;;3.60;;
29688;SDS011;16600;47.444;8.334;2023-10-09T11:35:55;14.18;;;4.95;;
29688;SDS011;16600;47.444;8.334;2023-10-09T11:38:23;15.73;;;4.57;;
29688;SDS011;16600;47.444;8.334;2023-10-09T11:40:49;13.82;;;5.25;;
29688;SDS011;16600;47.444;8.334;2023-10-09T11:43:21;9.75;;;4.05;;
29688;SDS011;16600;47.444;8.334;2023-10-09T11:46:09;15.05;;;5.03;;
29688;SDS011;16600;47.444;8.334;2023-10-09T11:49:08;16.30;;;4.82;;
29688;SDS011;16600;47.444;8.334;2023-10-09T11:51:54;18.70;;;6.03;;
29688;SDS011;16600;47.444;8.334;2023-10-09T11:54:50;10.18;;;4.45;;
29688;SDS011;16600;47.444;8.334;2023-10-09T11:57:16;14.68;;;5.18;;
29688;SDS011;16600;47.444;8.334;2023-10-09T11:59:42;7.25;;;3.80;;
29688;SDS011;16600;47.444;8.334;2023-10-09T12:02:12;12.70;;;3.97;;
29688;SDS011;16600;47.444;8.334;2023-10-09T12:04:39;8.98;;;4.25;;
29688;SDS011;16600;47.444;8.334;2023-10-09T12:07:08;19.88;;;4.53;;
29688;SDS011;16600;47.444;8.334;2023-10-09T12:09:38;18.20;;;4.70;;
29688;SDS011;16600;47.444;8.334;2023-10-09T12:12:05;11.60;;;4.50;;
29688;SDS011;16600;47.444;8.334;2023-10-09T12:14:33;15.52;;;5.32;;
29688;SDS011;16600;47.444;8.334;2023-10-09T12:17:02;12.57;;;4.70;;
29688;SDS011;16600;47.444;8.334;2023-10-09T12:19:34;14.43;;;4.68;;
29688;SDS011;16600;47.444;8.334;2023-10-09T12:22:00;8.73;;;4.53;;
29688;SDS011;16600;47.444;8.334;2023-10-09T12:24:29;11.30;;;4.75;;
29688;SDS011;16600;47.444;8.334;2023-10-09T12:26:58;12.13;;;5.10;;
29688;SDS011;16600;47.444;8.334;2023-10-09T12:29:25;10.57;;;4.55;;
29688;SDS011;16600;47.444;8.334;2023-10-09T12:31:56;15.15;;;4.43;;
29688;SDS011;16600;47.444;8.334;2023-10-09T12:34:25;23.80;;;4.47;;
29688;SDS011;16600;47.444;8.334;2023-10-09T12:36:56;14.00;;;4.43;;
29688;SDS011;16600;47.444;8.334;2023-10-09T12:39:26;19.08;;;4.90;;
29688;SDS011;16600;47.444;8.334;2023-10-09T12:42:01;17.30;;;5.25;;
29688;SDS011;16600;47.444;8.334;2023-10-09T12:44:34;17.85;;;4.38;;
29688;SDS011;16600;47.444;8.334;2023-10-09T12:47:06;20.38;;;5.38;;
29688;SDS011;16600;47.444;8.334;2023-10-09T12:49:32;11.07;;;4.32;;
29688;SDS011;16600;47.444;8.334;2023-10-09T12:51:58;13.30;;;4.25;;
29688;SDS011;16600;47.444;8.334;2023-10-09T12:54:27;12.82;;;4.43;;
29688;SDS011;16600;47.444;8.334;2023-10-09T12:56:54;7.95;;;4.10;;
29688;SDS011;16600;47.444;8.334;2023-10-09T12:59:20;19.45;;;5.63;;
29688;SDS011;16600;47.444;8.334;2023-10-09T13:01:48;3.75;;;1.70;;
29688;SDS011;16600;47.444;8.334;2023-10-09T13:04:18;2.72;;;1.13;;
29688;SDS011;16600;47.444;8.334;2023-10-09T13:06:48;8.68;;;1.88;;
29688;SDS011;16600;47.444;8.334;2023-10-09T13:09:20;4.18;;;2.00;;
29688;SDS011;16600;47.444;8.334;2023-10-09T13:12:01;9.88;;;3.95;;
29688;SDS011;16600;47.444;8.334;2023-10-09T13:14:27;5.82;;;2.75;;
29688;SDS011;16600;47.444;8.334;2023-10-09T13:16:54;9.20;;;4.75;;
29688;SDS011;16600;47.444;8.334;2023-10-09T13:19:21;6.95;;;3.15;;
29688;SDS011;16600;47.444;8.334;2023-10-09T13:21:49;17.90;;;4.97;;
29688;SDS011;16600;47.444;8.334;2023-10-09T13:24:16;7.38;;;3.13;;
29688;SDS011;16600;47.444;8.334;2023-10-09T13:26:43;14.60;;;5.30;;
29688;SDS011;16600;47.444;8.334;2023-10-09T13:29:12;7.00;;;2.95;;
29688;SDS011;16600;47.444;8.334;2023-10-09T13:31:38;9.18;;;3.72;;
29688;SDS011;16600;47.444;8.334;2023-10-09T13:34:05;7.82;;;3.72;;
29688;SDS011;16600;47.444;8.334;2023-10-09T13:36:35;11.00;;;4.78;;
29688;SDS011;16600;47.444;8.334;2023-10-09T13:39:05;6.60;;;3.58;;
29688;SDS011;16600;47.444;8.334;2023-10-09T13:41:46;7.47;;;3.60;;
29688;SDS011;16600;47.444;8.334;2023-10-09T13:44:15;17.48;;;4.43;;
29688;SDS011;16600;47.444;8.334;2023-10-09T13:46:41;7.47;;;3.47;;
29688;SDS011;16600;47.444;8.334;2023-10-09T13:49:11;16.50;;;5.00;;
29688;SDS011;16600;47.444;8.334;2023-10-09T13:51:38;14.13;;;5.15;;
29688;SDS011;16600;47.444;8.334;2023-10-09T13:54:12;15.63;;;4.78;;
29688;SDS011;16600;47.444;8.334;2023-10-09T13:56:54;12.32;;;5.95;;
29688;SDS011;16600;47.444;8.334;2023-10-09T13:59:20;10.60;;;5.30;;
29688;SDS011;16600;47.444;8.334;2023-10-09T14:01:48;14.88;;;5.70;;
29688;SDS011;16600;47.444;8.334;2023-10-09T14:04:18;33.08;;;5.70;;
29688;SDS011;16600;47.444;8.334;2023-10-09T14:06:49;13.55;;;5.93;;
29688;SDS011;16600;47.444;8.334;2023-10-09T14:09:23;12.18;;;4.43;;
29688;SDS011;16600;47.444;8.334;2023-10-09T14:12:04;8.57;;;3.90;;
29688;SDS011;16600;47.444;8.334;2023-10-09T14:14:37;16.33;;;5.25;;
29688;SDS011;16600;47.444;8.334;2023-10-09T14:17:07;8.48;;;4.53;;
29688;SDS011;16600;47.444;8.334;2023-10-09T14:19:42;12.52;;;5.25;;
29688;SDS011;16600;47.444;8.334;2023-10-09T14:22:18;12.07;;;5.22;;
29688;SDS011;16600;47.444;8.334;2023-10-09T14:24:50;8.57;;;3.88;;
29688;SDS011;16600;47.444;8.334;2023-10-09T14:27:26;16.95;;;4.68;;
29688;SDS011;16600;47.444;8.334;2023-10-09T14:29:57;9.70;;;3.40;;
29688;SDS011;16600;47.444;8.334;2023-10-09T14:32:29;23.20;;;5.22;;
29688;SDS011;16600;47.444;8.334;2023-10-09T14:34:59;5.43;;;3.15;;
29688;SDS011;16600;47.444;8.334;2023-10-09T14:37:38;12.98;;;4.78;;
29688;SDS011;16600;47.444;8.334;2023-10-09T14:40:05;16.55;;;5.95;;
29688;SDS011;16600;47.444;8.334;2023-10-09T14:42:39;13.50;;;5.80;;
29688;SDS011;16600;47.444;8.334;2023-10-09T14:45:10;19.70;;;4.68;;
29688;SDS011;16600;47.444;8.334;2023-10-09T14:47:43;26.60;;;5.28;;
29688;SDS011;16600;47.444;8.334;2023-10-09T14:50:12;15.27;;;3.97;;
29688;SDS011;16600;47.444;8.334;2023-10-09T14:52:41;13.25;;;3.65;;
29688;SDS011;16600;47.444;8.334;2023-10-09T14:55:10;9.07;;;3.75;;
29688;SDS011;16600;47.444;8.334;2023-10-09T14:57:40;8.90;;;3.10;;
29688;SDS011;16600;47.444;8.334;2023-10-09T15:00:08;7.40;;;3.78;;
29688;SDS011;16600;47.444;8.334;2023-10-09T15:02:41;15.07;;;5.78;;
29688;SDS011;16600;47.444;8.334;2023-10-09T15:05:07;13.57;;;5.10;;
29688;SDS011;16600;47.444;8.334;2023-10-09T15:07:40;13.55;;;5.80;;
29688;SDS011;16600;47.444;8.334;2023-10-09T15:10:06;23.85;;;5.90;;
29688;SDS011;16600;47.444;8.334;2023-10-09T15:12:35;16.08;;;5.38;;
29688;SDS011;16600;47.444;8.334;2023-10-09T15:15:09;15.35;;;5.63;;
29688;SDS011;16600;47.444;8.334;2023-10-09T15:17:40;12.93;;;5.57;;
29688;SDS011;16600;47.444;8.334;2023-10-09T15:20:12;12.43;;;5.18;;
29688;SDS011;16600;47.444;8.334;2023-10-09T15:22:40;14.52;;;6.40;;
29688;SDS011;16600;47.444;8.334;2023-10-09T15:25:06;15.43;;;6.40;;
29688;SDS011;16600;47.444;8.334;2023-10-09T15:27:36;26.13;;;6.35;;
29688;SDS011;16600;47.444;8.334;2023-10-09T15:30:05;13.57;;;5.88;;